createdAt,value
2018-11-22T00:00:03.354Z,1
2018-11-22T00:05:03.340Z,0
2018-11-22T00:10:02.876Z,0
2018-11-22T00:15:03.322Z,0
2018-11-22T00:20:02.768Z,0
2018-11-22T00:25:03.262Z,1
2018-11-22T00:30:02.730Z,1
2018-11-22T00:35:03.186Z,1
2018-11-22T00:40:02.684Z,1
2018-11-22T00:45:03.112Z,1
2018-11-22T00:50:02.604Z,0
2018-11-22T00:55:03.100Z,1
2018-11-22T01:00:02.493Z,1
2018-11-22T01:05:03.101Z,0
2018-11-22T01:10:02.636Z,0
2018-11-22T01:15:03.034Z,0
2018-11-22T01:20:02.514Z,1
2018-11-22T01:25:02.994Z,0
2018-11-22T01:30:02.492Z,1
2018-11-22T01:35:02.980Z,0
2018-11-22T01:40:02.532Z,0
2018-11-22T01:45:02.910Z,1
2018-11-22T01:50:03.291Z,0
2018-11-22T01:55:02.749Z,1
2018-11-22T02:00:03.158Z,0
2018-11-22T02:05:02.858Z,0
2018-11-22T02:10:03.333Z,0
2018-11-22T02:15:02.751Z,0
2018-11-22T02:20:03.352Z,0
2018-11-22T02:25:02.906Z,0
2018-11-22T02:30:03.390Z,1
2018-11-22T02:35:02.781Z,1
2018-11-22T02:40:03.315Z,0
2018-11-22T02:45:02.727Z,1
2018-11-22T02:50:03.176Z,1
2018-11-22T02:55:02.540Z,0
2018-11-22T03:00:03.013Z,1
2018-11-22T03:05:02.448Z,0
2018-11-22T03:10:02.922Z,1
2018-11-22T03:15:03.353Z,0
2018-11-22T03:20:02.858Z,1
2018-11-22T03:25:03.262Z,0
2018-11-22T03:30:02.681Z,0
2018-11-22T03:35:03.156Z,0
2018-11-22T03:40:02.775Z,1
2018-11-22T03:45:03.205Z,0
2018-11-22T03:50:02.709Z,1
2018-11-22T03:55:03.150Z,1
2018-11-22T04:00:02.948Z,1
2018-11-22T04:05:02.406Z,1
2018-11-22T04:10:02.906Z,1
2018-11-22T04:15:03.388Z,1
2018-11-22T04:20:02.879Z,1
2018-11-22T04:25:03.301Z,1
2018-11-22T04:30:02.679Z,1
2018-11-22T04:35:03.128Z,1
2018-11-22T04:40:02.593Z,1
2018-11-22T04:45:02.994Z,1
2018-11-22T04:50:02.413Z,1
2018-11-22T04:55:02.905Z,1
2018-11-22T05:00:03.314Z,1
2018-11-22T05:05:02.851Z,1
2018-11-22T05:10:03.354Z,1
2018-11-22T05:15:02.749Z,1
2018-11-22T05:20:03.257Z,1
2018-11-22T05:25:02.675Z,1
2018-11-22T05:30:02.673Z,1
2018-11-22T05:35:03.155Z,1
2018-11-22T05:40:02.637Z,1
2018-11-22T05:45:03.096Z,1
2018-11-22T05:50:02.550Z,1
2018-11-22T05:55:02.953Z,1
2018-11-22T06:00:02.463Z,1
2018-11-22T06:05:02.976Z,1
2018-11-22T06:10:02.393Z,1
2018-11-22T06:15:02.899Z,1
2018-11-22T06:20:03.342Z,1
2018-11-22T06:25:03.912Z,1
2018-11-22T06:30:03.247Z,2
2018-11-22T06:35:02.624Z,3
2018-11-22T06:40:03.120Z,5
2018-11-22T06:45:02.542Z,10
2018-11-22T06:50:02.951Z,17
2018-11-22T06:55:03.328Z,25
2018-11-22T07:00:03.017Z,34
2018-11-22T07:05:02.672Z,41
2018-11-22T07:10:03.252Z,46
2018-11-22T07:15:02.652Z,53
2018-11-22T07:20:03.103Z,62
2018-11-22T07:25:02.470Z,70
2018-11-22T07:30:02.876Z,68
2018-11-22T07:35:03.453Z,73
2018-11-22T07:40:02.908Z,87
2018-11-22T07:45:03.378Z,133
2018-11-22T07:50:02.793Z,264
2018-11-22T07:55:03.234Z,353
2018-11-22T08:00:03.043Z,416
2018-11-22T08:05:02.465Z,477
2018-11-22T08:10:03.015Z,501
2018-11-22T08:15:02.437Z,515
2018-11-22T08:20:02.861Z,564
2018-11-22T08:25:03.327Z,587
2018-11-22T08:30:02.835Z,622
2018-11-22T08:35:03.252Z,695
2018-11-22T08:40:02.673Z,736
2018-11-22T08:45:03.086Z,779
2018-11-22T08:50:02.655Z,858
2018-11-22T08:55:03.067Z,1000
2018-11-22T09:00:02.497Z,1000
2018-11-22T09:05:03.025Z,1000
2018-11-22T09:10:02.760Z,1000
2018-11-22T09:15:03.183Z,1000
2018-11-22T09:20:02.712Z,1000
2018-11-22T09:25:03.143Z,1000
2018-11-22T09:30:03.220Z,1000
2018-11-22T09:35:02.622Z,996
2018-11-22T09:40:03.326Z,1000
2018-11-22T09:45:02.759Z,1000
2018-11-22T09:50:03.284Z,1000
2018-11-22T09:55:02.731Z,2000
2018-11-22T10:00:03.195Z,2000
2018-11-22T10:05:03.231Z,2000
2018-11-22T10:10:03.020Z,2000
2018-11-22T10:15:02.436Z,2000
2018-11-22T10:20:02.981Z,3000
2018-11-22T10:25:02.474Z,2000
2018-11-22T10:30:03.086Z,2000
2018-11-22T10:35:02.906Z,2000
2018-11-22T10:40:02.724Z,2000
2018-11-22T10:45:03.175Z,2000
2018-11-22T10:50:02.638Z,2000
2018-11-22T10:55:03.117Z,3000
2018-11-22T11:00:02.585Z,2000
2018-11-22T11:05:03.075Z,3000
2018-11-22T11:10:02.564Z,3000
2018-11-22T11:15:03.199Z,1000
2018-11-22T11:20:02.638Z,1000
2018-11-22T11:25:03.114Z,1000
2018-11-22T11:30:02.545Z,1000
2018-11-22T11:35:03.064Z,2000
2018-11-22T11:40:02.613Z,1000
2018-11-22T11:45:03.054Z,2000
2018-11-22T11:50:02.637Z,2000
2018-11-22T11:55:03.046Z,2000
2018-11-22T12:00:02.550Z,2000
2018-11-22T12:05:03.037Z,2000
2018-11-22T12:10:02.588Z,2000
2018-11-22T12:15:03.055Z,2000
2018-11-22T12:20:02.542Z,2000
2018-11-22T12:25:03.055Z,1000
2018-11-22T12:30:02.641Z,1000
2018-11-22T12:35:03.256Z,1000
2018-11-22T12:40:02.785Z,1000
2018-11-22T12:45:03.340Z,1000
2018-11-22T12:50:02.836Z,1000
2018-11-22T12:55:02.419Z,1000
2018-11-22T13:00:02.948Z,1000
2018-11-22T13:05:02.436Z,1000
2018-11-22T13:10:02.969Z,1000
2018-11-22T13:15:02.427Z,1000
2018-11-22T13:20:02.908Z,928
2018-11-22T13:25:02.454Z,929
2018-11-22T13:30:02.942Z,902
2018-11-22T13:35:02.435Z,902
2018-11-22T13:40:03.009Z,818
2018-11-22T13:45:02.533Z,843
2018-11-22T13:50:03.057Z,847
2018-11-22T13:55:03.521Z,818
2018-11-22T14:00:02.989Z,847
2018-11-22T14:05:02.527Z,839
2018-11-22T14:10:03.036Z,763
2018-11-22T14:15:02.446Z,762
2018-11-22T14:20:02.977Z,647
2018-11-22T14:25:02.460Z,599
2018-11-22T14:30:02.953Z,551
2018-11-22T14:35:02.426Z,523
2018-11-22T14:40:02.997Z,502
2018-11-22T14:45:02.496Z,444
2018-11-22T14:50:03.052Z,499
2018-11-22T14:55:02.556Z,580
2018-11-22T15:00:03.061Z,675
2018-11-22T15:05:02.598Z,768
2018-11-22T15:10:03.313Z,767
2018-11-22T15:15:02.761Z,635
2018-11-22T15:20:03.213Z,515
2018-11-22T15:25:02.674Z,416
2018-11-22T15:30:03.168Z,292
2018-11-22T15:35:02.671Z,161
2018-11-22T15:40:03.143Z,75
2018-11-22T15:45:02.650Z,58
2018-11-22T15:50:03.310Z,36
2018-11-22T15:55:02.981Z,15
2018-11-22T16:00:02.899Z,9
2018-11-22T16:05:02.454Z,5
2018-11-22T16:10:02.923Z,3
2018-11-22T16:15:02.691Z,2
2018-11-22T16:20:03.183Z,1
2018-11-22T16:25:02.640Z,1
2018-11-22T16:30:03.166Z,1
2018-11-22T16:35:02.713Z,1
2018-11-22T16:40:03.292Z,1
2018-11-22T16:45:02.761Z,1
2018-11-22T16:50:02.365Z,1
2018-11-22T16:55:02.872Z,1
2018-11-22T17:00:02.383Z,1
2018-11-22T17:05:02.833Z,1
2018-11-22T17:10:02.419Z,1
2018-11-22T17:15:02.882Z,1
2018-11-22T17:20:03.454Z,1
2018-11-22T17:25:02.800Z,1
2018-11-22T17:30:03.194Z,1
2018-11-22T17:35:02.367Z,1
2018-11-22T17:40:02.924Z,1
2018-11-22T17:45:02.435Z,1
2018-11-22T17:50:02.976Z,1
2018-11-22T17:55:02.521Z,1
2018-11-22T18:00:03.012Z,1
2018-11-22T18:05:02.675Z,1
2018-11-22T18:10:03.230Z,1
2018-11-22T18:15:02.728Z,1
2018-11-22T18:20:03.254Z,1
2018-11-22T18:25:02.711Z,1
2018-11-22T18:30:03.183Z,1
2018-11-22T18:35:02.627Z,1
2018-11-22T18:40:03.164Z,1
2018-11-22T18:45:02.623Z,1
2018-11-22T18:50:03.078Z,1
2018-11-22T18:55:02.579Z,1
2018-11-22T19:00:03.033Z,1
2018-11-22T19:05:02.529Z,1
2018-11-22T19:10:03.016Z,1
2018-11-22T19:15:02.530Z,1
2018-11-22T19:20:09.343Z,1
2018-11-22T19:25:02.846Z,1
2018-11-22T19:30:03.956Z,1
2018-11-22T19:35:02.419Z,1
2018-11-22T19:40:02.952Z,1
2018-11-22T19:45:03.370Z,1
2018-11-22T19:50:02.893Z,1
2018-11-22T19:55:02.481Z,1
2018-11-22T20:00:02.977Z,1
2018-11-22T20:05:02.486Z,1
2018-11-22T20:10:03.044Z,1
2018-11-22T20:15:02.509Z,1
2018-11-22T20:20:03.022Z,1
2018-11-22T20:25:02.556Z,1
2018-11-22T20:30:03.045Z,1
2018-11-22T20:35:02.528Z,1
2018-11-22T20:40:03.071Z,1
2018-11-22T20:45:02.535Z,1
2018-11-22T20:50:03.020Z,1
2018-11-22T20:55:02.488Z,1
2018-11-22T21:00:02.896Z,1
2018-11-22T21:05:02.388Z,1
2018-11-22T21:10:02.923Z,1
2018-11-22T21:15:02.392Z,1
2018-11-22T21:20:02.880Z,1
2018-11-22T21:25:02.434Z,1
2018-11-22T21:30:02.922Z,1
2018-11-22T21:35:02.388Z,1
2018-11-22T21:40:02.929Z,1
2018-11-22T21:45:02.431Z,1
2018-11-22T21:50:02.930Z,1
2018-11-22T21:55:03.353Z,1
2018-11-22T22:00:02.844Z,1
2018-11-22T22:05:02.441Z,1
2018-11-22T22:10:03.167Z,1
2018-11-22T22:15:02.599Z,1
2018-11-22T22:20:03.110Z,1
2018-11-22T22:25:02.476Z,1
2018-11-22T22:30:03.176Z,1
2018-11-22T22:35:02.584Z,1
2018-11-22T22:40:03.954Z,1
2018-11-22T22:45:02.500Z,1
2018-11-22T22:50:02.922Z,1
2018-11-22T22:55:02.435Z,1
2018-11-22T23:00:02.872Z,1
2018-11-22T23:05:03.333Z,1
2018-11-22T23:10:02.901Z,1
2018-11-22T23:15:03.325Z,1
2018-11-22T23:20:02.770Z,1
2018-11-22T23:25:02.390Z,1
2018-11-22T23:30:02.821Z,1
2018-11-22T23:35:03.399Z,1
2018-11-22T23:40:02.929Z,1
2018-11-22T23:45:02.403Z,1
2018-11-22T23:50:02.860Z,1
2018-11-22T23:55:03.295Z,1
